createdAt,value
2023-03-25T00:01:25.718Z,2.07
2023-03-25T00:03:54.177Z,2.20
2023-03-25T00:06:21.870Z,1.57
2023-03-25T00:08:49.889Z,1.80
2023-03-25T00:11:17.666Z,1.97
2023-03-25T00:13:45.452Z,1.90
2023-03-25T00:16:13.158Z,1.30
2023-03-25T00:18:41.609Z,1.60
2023-03-25T00:21:12.883Z,1.63
2023-03-25T00:23:42.530Z,1.60
2023-03-25T00:26:11.190Z,1.73
2023-03-25T00:28:40.403Z,1.63
2023-03-25T00:31:16.002Z,1.97
2023-03-25T00:33:43.915Z,1.43
2023-03-25T00:36:18.248Z,1.50
2023-03-25T00:38:50.254Z,1.83
2023-03-25T00:41:27.928Z,1.83
2023-03-25T00:44:02.167Z,1.67
2023-03-25T00:46:34.284Z,2.17
2023-03-25T00:49:02.358Z,2.13
2023-03-25T00:51:31.589Z,1.53
2023-03-25T00:54:00.942Z,1.67
2023-03-25T00:56:31.608Z,2.17
2023-03-25T00:58:59.454Z,2.00
2023-03-25T01:01:30.163Z,1.97
2023-03-25T01:04:00.592Z,1.80
2023-03-25T01:06:37.043Z,2.50
2023-03-25T01:09:09.767Z,2.13
2023-03-25T01:11:38.757Z,2.30
2023-03-25T01:14:16.587Z,1.80
2023-03-25T01:16:45.749Z,1.73
2023-03-25T01:19:15.218Z,1.60
2023-03-25T01:21:45.398Z,1.60
2023-03-25T01:24:15.789Z,1.73
2023-03-25T01:26:48.337Z,1.73
2023-03-25T01:29:21.715Z,2.03
2023-03-25T01:31:56.569Z,1.83
2023-03-25T01:34:26.399Z,1.20
2023-03-25T01:36:55.763Z,3.00
2023-03-25T01:39:24.796Z,1.67
2023-03-25T01:41:55.423Z,1.93
2023-03-25T01:44:24.306Z,1.50
2023-03-25T01:46:56.375Z,1.73
2023-03-25T01:49:44.650Z,1.63
2023-03-25T01:52:25.624Z,2.10
2023-03-25T01:54:58.918Z,1.60
2023-03-25T01:57:28.084Z,1.70
2023-03-25T01:59:56.628Z,1.77
2023-03-25T02:02:34.972Z,1.60
2023-03-25T02:05:26.177Z,1.47
2023-03-25T02:07:58.081Z,2.07
2023-03-25T02:10:26.168Z,2.50
2023-03-25T02:12:54.013Z,2.23
2023-03-25T02:15:22.674Z,1.90
2023-03-25T02:19:20.021Z,1.70
2023-03-25T02:22:38.052Z,1.73
2023-03-25T02:25:51.945Z,1.87
2023-03-25T02:29:17.652Z,1.53
2023-03-25T02:32:16.450Z,1.50
2023-03-25T02:35:59.464Z,1.63
2023-03-25T02:39:20.026Z,1.70
2023-03-25T02:42:18.275Z,1.60
2023-03-25T02:45:16.111Z,1.60
2023-03-25T02:48:01.772Z,1.50
2023-03-25T02:50:43.927Z,1.40
2023-03-25T02:53:34.433Z,1.20
2023-03-25T02:56:12.415Z,1.80
2023-03-25T02:58:44.455Z,1.80
2023-03-25T03:01:15.204Z,1.50
2023-03-25T03:03:43.885Z,1.40
2023-03-25T03:06:19.473Z,1.70
2023-03-25T03:08:50.410Z,1.33
2023-03-25T03:12:11.382Z,1.43
2023-03-25T03:15:33.783Z,1.60
2023-03-25T03:18:44.906Z,2.20
2023-03-25T03:21:33.147Z,1.60
2023-03-25T03:24:38.626Z,2.10
2023-03-25T03:27:50.218Z,2.10
2023-03-25T03:30:58.633Z,1.73
2023-03-25T03:33:57.786Z,1.23
2023-03-25T03:36:41.799Z,1.37
2023-03-25T03:39:26.659Z,1.50
2023-03-25T03:42:12.388Z,1.30
2023-03-25T03:44:50.249Z,1.40
2023-03-25T03:47:31.470Z,1.63
2023-03-25T03:50:20.390Z,1.70
2023-03-25T03:53:10.888Z,1.33
2023-03-25T03:56:03.883Z,1.43
2023-03-25T03:58:43.181Z,1.87
2023-03-25T04:01:47.879Z,2.10
2023-03-25T04:04:27.279Z,2.43
2023-03-25T04:07:28.128Z,2.13
2023-03-25T04:10:19.062Z,1.73
2023-03-25T04:12:55.005Z,1.40
2023-03-25T04:15:23.013Z,1.67
2023-03-25T04:17:50.880Z,3.43
2023-03-25T04:20:30.028Z,1.80
2023-03-25T04:22:57.721Z,2.03
2023-03-25T04:25:25.780Z,1.73
2023-03-25T04:27:59.028Z,2.57
2023-03-25T04:30:29.872Z,2.10
2023-03-25T04:32:57.766Z,3.73
2023-03-25T04:35:26.051Z,2.33
2023-03-25T04:37:54.757Z,1.90
2023-03-25T04:40:22.499Z,1.83
2023-03-25T04:42:50.211Z,2.00
2023-03-25T04:45:17.960Z,2.33
2023-03-25T04:47:49.950Z,2.00
2023-03-25T04:50:30.110Z,2.03
2023-03-25T04:53:00.559Z,2.47
2023-03-25T04:55:30.032Z,1.60
2023-03-25T04:57:58.019Z,2.43
2023-03-25T05:00:27.880Z,1.90
2023-03-25T05:02:56.962Z,1.87
2023-03-25T05:05:26.482Z,2.00
2023-03-25T05:07:58.455Z,2.33
2023-03-25T05:10:30.842Z,1.90
2023-03-25T05:13:08.415Z,2.23
2023-03-25T05:15:41.213Z,2.07
2023-03-25T05:18:17.577Z,2.40
2023-03-25T05:20:51.159Z,2.50
2023-03-25T05:23:19.851Z,2.00
2023-03-25T05:25:51.830Z,2.10
2023-03-25T05:28:20.255Z,2.67
2023-03-25T05:30:48.836Z,1.93
2023-03-25T05:33:19.209Z,2.27
2023-03-25T05:35:47.483Z,1.77
2023-03-25T05:38:18.875Z,2.70
2023-03-25T05:40:49.261Z,1.73
2023-03-25T05:43:22.840Z,2.37
2023-03-25T05:45:50.828Z,1.60
2023-03-25T05:48:19.058Z,2.30
2023-03-25T05:50:46.955Z,1.80
2023-03-25T05:53:16.570Z,1.83
2023-03-25T05:55:44.819Z,1.83
2023-03-25T05:58:12.730Z,1.87
2023-03-25T06:00:40.664Z,1.47
2023-03-25T06:03:08.857Z,1.90
2023-03-25T06:05:41.645Z,2.47
2023-03-25T06:08:09.762Z,2.20
2023-03-25T06:10:37.662Z,2.03
2023-03-25T06:13:05.863Z,2.00
2023-03-25T06:15:39.313Z,3.13
2023-03-25T06:18:07.623Z,3.10
2023-03-25T06:20:35.447Z,2.30
2023-03-25T06:23:03.459Z,2.27
2023-03-25T06:25:31.440Z,1.50
2023-03-25T06:28:03.757Z,2.30
2023-03-25T06:30:31.782Z,3.00
2023-03-25T06:33:03.260Z,2.00
2023-03-25T06:35:31.571Z,2.10
2023-03-25T06:37:59.512Z,2.10
2023-03-25T06:40:33.048Z,3.10
2023-03-25T06:43:04.126Z,1.80
2023-03-25T06:45:34.848Z,2.10
2023-03-25T06:48:15.691Z,1.70
2023-03-25T06:50:43.831Z,2.57
2023-03-25T06:53:11.867Z,1.87
2023-03-25T06:55:41.389Z,2.00
2023-03-25T06:58:09.023Z,1.43
2023-03-25T07:00:37.307Z,2.43
2023-03-25T07:03:05.417Z,1.70
2023-03-25T07:05:33.206Z,2.00
2023-03-25T07:08:01.322Z,2.20
2023-03-25T07:10:31.075Z,1.63
2023-03-25T07:12:58.736Z,2.17
2023-03-25T07:15:26.455Z,2.30
2023-03-25T07:17:54.129Z,2.30
2023-03-25T07:20:21.899Z,2.60
2023-03-25T07:22:49.917Z,2.00
2023-03-25T07:25:17.919Z,2.20
2023-03-25T07:27:45.650Z,2.13
2023-03-25T07:30:18.762Z,2.40
2023-03-25T07:32:47.042Z,3.03
2023-03-25T07:35:15.470Z,1.83
2023-03-25T07:37:43.142Z,2.83
2023-03-25T07:40:12.223Z,1.77
2023-03-25T07:42:39.900Z,2.50
2023-03-25T07:45:22.297Z,2.13
2023-03-25T07:47:53.347Z,2.63
2023-03-25T07:50:26.047Z,3.07
2023-03-25T07:52:55.509Z,2.40
2023-03-25T07:55:23.469Z,2.47
2023-03-25T07:57:51.524Z,2.37
2023-03-25T08:00:20.190Z,2.97
2023-03-25T08:02:47.971Z,2.33
2023-03-25T08:05:21.678Z,3.70
2023-03-25T08:07:53.193Z,2.47
2023-03-25T08:10:22.368Z,2.20
2023-03-25T08:12:54.007Z,3.20
2023-03-25T08:15:24.973Z,2.03
2023-03-25T08:17:53.116Z,1.97
2023-03-25T08:20:22.547Z,1.83
2023-03-25T08:22:51.436Z,1.47
2023-03-25T08:25:19.512Z,2.30
2023-03-25T08:27:47.440Z,2.23
2023-03-25T08:30:17.347Z,2.70
2023-03-25T08:32:54.619Z,1.80
2023-03-25T08:35:25.669Z,2.27
2023-03-25T08:37:54.017Z,1.67
2023-03-25T08:40:21.965Z,2.40
2023-03-25T08:42:50.172Z,2.67
2023-03-25T08:45:18.201Z,2.50
2023-03-25T08:47:46.380Z,2.77
2023-03-25T08:50:14.026Z,2.20
2023-03-25T08:52:42.462Z,3.87
2023-03-25T08:55:12.534Z,2.60
2023-03-25T08:57:42.649Z,3.00
2023-03-25T09:00:16.929Z,2.80
2023-03-25T09:02:45.195Z,1.97
2023-03-25T09:05:16.129Z,4.20
2023-03-25T09:07:44.483Z,2.53
2023-03-25T09:10:13.382Z,1.63
2023-03-25T09:12:42.542Z,2.07
2023-03-25T09:15:12.726Z,2.60
2023-03-25T09:17:43.086Z,2.23
2023-03-25T09:20:12.149Z,2.50
2023-03-25T09:22:41.186Z,3.03
2023-03-25T09:25:09.802Z,2.30
2023-03-25T09:27:38.268Z,2.87
2023-03-25T09:30:09.369Z,2.10
2023-03-25T09:32:37.547Z,2.27
2023-03-25T09:35:06.557Z,1.80
2023-03-25T09:37:34.779Z,2.20
2023-03-25T09:40:04.099Z,2.50
2023-03-25T09:43:12.683Z,2.97
2023-03-25T09:45:48.402Z,3.00
2023-03-25T09:48:41.856Z,2.60
2023-03-25T09:51:36.764Z,2.83
2023-03-25T09:54:35.907Z,3.03
2023-03-25T09:57:16.644Z,3.07
2023-03-25T09:59:56.867Z,3.10
2023-03-25T10:03:16.143Z,2.47
2023-03-25T10:06:12.344Z,2.80
2023-03-25T10:09:39.650Z,3.00
2023-03-25T10:12:29.892Z,2.73
2023-03-25T10:15:49.689Z,3.53
2023-03-25T10:18:59.741Z,3.30
2023-03-25T10:22:04.020Z,4.13
2023-03-25T10:24:57.420Z,3.13
2023-03-25T10:27:43.026Z,2.90
2023-03-25T10:30:43.178Z,3.50
2023-03-25T10:33:51.757Z,3.80
2023-03-25T10:36:28.534Z,4.70
2023-03-25T10:38:56.577Z,4.90
2023-03-25T10:41:39.369Z,4.27
2023-03-25T10:44:12.798Z,5.50
2023-03-25T10:46:51.676Z,3.50
2023-03-25T10:49:27.426Z,3.37
2023-03-25T10:52:00.151Z,4.07
2023-03-25T10:54:41.591Z,2.97
2023-03-25T10:57:24.910Z,3.37
2023-03-25T11:00:06.669Z,4.80
2023-03-25T11:02:35.132Z,3.30
2023-03-25T11:05:09.726Z,3.63
2023-03-25T11:07:50.081Z,3.83
2023-03-25T11:10:35.315Z,4.37
2023-03-25T11:13:08.603Z,3.50
2023-03-25T11:15:41.113Z,3.53
2023-03-25T11:18:44.519Z,3.70
2023-03-25T11:21:15.818Z,3.50
2023-03-25T11:23:51.444Z,3.43
2023-03-25T11:26:38.427Z,3.30
2023-03-25T11:29:19.747Z,3.00
2023-03-25T11:32:16.879Z,3.00
2023-03-25T11:34:50.637Z,3.20
2023-03-25T11:37:24.564Z,2.90
2023-03-25T11:39:56.201Z,3.60
2023-03-25T11:42:43.007Z,3.23
2023-03-25T11:45:35.160Z,2.00
2023-03-25T11:48:22.492Z,2.97
2023-03-25T11:51:01.901Z,2.93
2023-03-25T11:53:33.976Z,1.90
2023-03-25T11:56:11.872Z,2.00
2023-03-25T11:58:40.824Z,3.33
2023-03-25T12:02:01.854Z,2.20
2023-03-25T12:04:30.722Z,2.43
2023-03-25T12:07:15.553Z,2.37
2023-03-25T12:09:59.450Z,2.10
2023-03-25T12:13:13.529Z,2.40
2023-03-25T12:16:08.763Z,2.37
2023-03-25T12:19:13.567Z,2.50
2023-03-25T12:22:04.276Z,2.60
2023-03-25T12:25:34.901Z,2.20
2023-03-25T12:28:30.774Z,1.90
2023-03-25T12:32:03.626Z,2.63
2023-03-25T12:35:11.025Z,2.13
2023-03-25T12:38:28.645Z,1.67
2023-03-25T12:41:26.963Z,2.13
2023-03-25T12:44:34.445Z,1.40
2023-03-25T12:47:49.132Z,2.30
2023-03-25T12:50:52.449Z,2.00
2023-03-25T12:54:09.019Z,1.67
2023-03-25T12:56:50.297Z,2.30
2023-03-25T13:00:01.431Z,2.33
2023-03-25T13:03:17.111Z,1.90
2023-03-25T13:06:23.862Z,2.17
2023-03-25T13:09:12.196Z,1.73
2023-03-25T13:12:54.865Z,2.17
2023-03-25T13:15:42.015Z,1.63
2023-03-25T13:18:35.793Z,1.90
2023-03-25T13:21:27.269Z,1.67
2023-03-25T13:24:40.781Z,2.30
2023-03-25T13:27:14.512Z,2.30
2023-03-25T13:29:57.827Z,3.13
2023-03-25T13:32:51.144Z,1.90
2023-03-25T13:35:54.052Z,1.90
2023-03-25T13:38:43.140Z,1.90
2023-03-25T13:41:48.153Z,2.30
2023-03-25T13:44:31.683Z,2.40
2023-03-25T13:47:44.001Z,1.77
2023-03-25T13:50:33.964Z,1.60
2023-03-25T13:53:37.741Z,1.43
2023-03-25T13:56:18.358Z,1.40
2023-03-25T13:58:59.907Z,1.50
2023-03-25T14:02:36.108Z,1.50
2023-03-25T14:05:48.076Z,1.93
2023-03-25T14:08:52.346Z,1.97
2023-03-25T14:11:57.397Z,3.30
2023-03-25T14:14:27.669Z,2.77
2023-03-25T14:17:01.472Z,1.47
2023-03-25T14:19:49.063Z,1.60
2023-03-25T14:22:33.325Z,1.40
2023-03-25T14:25:02.363Z,1.77
2023-03-25T14:27:37.590Z,1.60
2023-03-25T14:30:23.318Z,1.30
2023-03-25T14:32:56.445Z,1.73
2023-03-25T14:35:38.870Z,1.60
2023-03-25T14:38:09.900Z,1.43
2023-03-25T14:41:01.326Z,1.30
2023-03-25T14:43:47.732Z,1.37
2023-03-25T14:46:26.273Z,1.33
2023-03-25T14:49:06.434Z,1.17
2023-03-25T14:51:50.808Z,1.07
2023-03-25T14:54:36.099Z,1.97
2023-03-25T14:57:27.795Z,2.03
2023-03-25T15:00:14.094Z,2.30
2023-03-25T15:02:52.225Z,2.13
2023-03-25T15:05:29.789Z,2.43
2023-03-25T15:08:09.971Z,1.73
2023-03-25T15:10:50.183Z,1.53
2023-03-25T15:13:58.529Z,2.13
2023-03-25T15:17:07.514Z,2.80
2023-03-25T15:20:23.102Z,1.83
2023-03-25T15:23:18.933Z,2.53
2023-03-25T15:25:54.901Z,2.50
2023-03-25T15:29:22.093Z,1.90
2023-03-25T15:32:43.533Z,1.50
2023-03-25T15:36:08.077Z,1.27
2023-03-25T15:39:13.549Z,2.27
2023-03-25T15:42:40.234Z,1.90
2023-03-25T15:46:07.187Z,2.50
2023-03-25T15:49:27.943Z,1.90
2023-03-25T15:52:46.329Z,2.00
2023-03-25T15:55:50.679Z,3.87
2023-03-25T15:59:38.868Z,3.17
2023-03-25T16:02:46.086Z,3.00
2023-03-25T16:05:18.772Z,2.27
2023-03-25T16:07:48.429Z,2.83
2023-03-25T16:10:36.524Z,2.37
2023-03-25T16:13:25.300Z,2.30
2023-03-25T16:15:59.886Z,2.37
2023-03-25T16:18:28.489Z,3.10
2023-03-25T16:21:03.858Z,2.80
2023-03-25T16:23:31.995Z,2.60
2023-03-25T16:25:59.866Z,2.77
2023-03-25T16:28:39.234Z,2.60
2023-03-25T16:31:27.862Z,3.60
2023-03-25T16:34:00.561Z,3.20
2023-03-25T16:36:30.220Z,3.70
2023-03-25T16:38:58.826Z,3.03
2023-03-25T16:41:27.232Z,3.23
2023-03-25T16:43:58.565Z,3.73
2023-03-25T16:46:28.327Z,3.53
2023-03-25T16:48:58.538Z,3.20
2023-03-25T16:51:37.936Z,3.27
2023-03-25T16:54:34.835Z,3.30
2023-03-25T16:57:08.951Z,3.43
2023-03-25T16:59:38.871Z,3.67
2023-03-25T17:02:43.585Z,3.87
2023-03-25T17:05:25.659Z,4.03
2023-03-25T17:08:08.638Z,3.53
2023-03-25T17:11:02.645Z,4.20
2023-03-25T17:13:52.382Z,3.57
2023-03-25T17:16:29.123Z,3.40
2023-03-25T17:18:59.609Z,4.37
2023-03-25T17:21:34.895Z,3.63
2023-03-25T17:24:24.835Z,5.00
2023-03-25T17:27:16.630Z,4.77
2023-03-25T17:30:00.753Z,4.43
2023-03-25T17:32:28.876Z,4.20
2023-03-25T17:35:06.593Z,4.40
2023-03-25T17:37:35.101Z,4.17
2023-03-25T17:40:11.720Z,5.50
2023-03-25T17:42:41.726Z,3.57
2023-03-25T17:45:17.432Z,3.43
2023-03-25T17:47:46.824Z,4.50
2023-03-25T17:50:28.072Z,5.13
2023-03-25T17:52:57.595Z,5.50
2023-03-25T17:55:25.352Z,3.53
2023-03-25T17:57:56.279Z,4.47
2023-03-25T18:00:24.953Z,4.60
2023-03-25T18:02:52.795Z,4.63
2023-03-25T18:05:20.804Z,5.40
2023-03-25T18:07:48.754Z,4.90
2023-03-25T18:10:23.051Z,4.30
2023-03-25T18:12:51.426Z,5.23
2023-03-25T18:15:19.343Z,4.90
2023-03-25T18:17:47.360Z,4.63
2023-03-25T18:20:34.313Z,5.23
2023-03-25T18:23:03.029Z,4.43
2023-03-25T18:25:31.878Z,5.20
2023-03-25T18:28:00.667Z,4.20
2023-03-25T18:30:51.972Z,3.87
2023-03-25T18:33:21.314Z,3.67
2023-03-25T18:35:52.586Z,4.43
2023-03-25T18:38:28.039Z,3.00
2023-03-25T18:40:57.484Z,4.00
2023-03-25T18:43:25.482Z,4.50
2023-03-25T18:45:56.029Z,3.63
2023-03-25T18:48:23.879Z,3.93
2023-03-25T18:51:01.222Z,3.33
2023-03-25T18:53:30.608Z,3.80
2023-03-25T18:56:02.638Z,3.93
2023-03-25T18:58:36.673Z,3.83
2023-03-25T19:01:07.860Z,3.97
2023-03-25T19:03:39.305Z,3.83
2023-03-25T19:06:14.374Z,3.90
2023-03-25T19:08:46.178Z,3.93
2023-03-25T19:11:21.749Z,3.47
2023-03-25T19:13:52.888Z,3.63
2023-03-25T19:16:22.097Z,3.57
2023-03-25T19:18:50.004Z,3.90
2023-03-25T19:21:20.414Z,3.63
2023-03-25T19:23:48.500Z,3.03
2023-03-25T19:26:16.501Z,3.50
2023-03-25T19:28:44.719Z,3.47
2023-03-25T19:31:16.565Z,5.00
2023-03-25T19:33:45.145Z,4.30
2023-03-25T19:36:19.122Z,3.50
2023-03-25T19:38:48.084Z,3.50
2023-03-25T19:41:16.689Z,4.07
2023-03-25T19:43:45.343Z,3.60
2023-03-25T19:46:13.239Z,4.00
2023-03-25T19:48:41.219Z,4.03
2023-03-25T19:51:09.172Z,4.80
2023-03-25T19:53:37.371Z,3.53
2023-03-25T19:56:06.569Z,3.20
2023-03-25T19:58:35.311Z,3.50
2023-03-25T20:01:03.560Z,3.10
2023-03-25T20:03:32.894Z,3.13
2023-03-25T20:06:03.967Z,3.00
2023-03-25T20:08:32.243Z,2.70
2023-03-25T20:11:01.294Z,2.60
2023-03-25T20:13:29.641Z,2.93
2023-03-25T20:15:57.626Z,2.67
2023-03-25T20:18:25.561Z,3.27
2023-03-25T20:20:53.647Z,4.40
2023-03-25T20:23:21.827Z,4.03
2023-03-25T20:25:52.484Z,5.43
2023-03-25T20:28:20.642Z,3.37
2023-03-25T20:30:48.612Z,3.73
2023-03-25T20:33:16.943Z,4.50
2023-03-25T20:35:45.901Z,4.00
2023-03-25T20:38:14.493Z,3.43
2023-03-25T20:40:45.055Z,3.97
2023-03-25T20:43:14.845Z,4.77
2023-03-25T20:45:43.882Z,3.87
2023-03-25T20:48:12.089Z,3.73
2023-03-25T20:50:40.483Z,3.83
2023-03-25T20:53:09.174Z,3.40
2023-03-25T20:55:37.544Z,3.80
2023-03-25T20:58:06.444Z,3.23
2023-03-25T21:00:34.580Z,4.33
2023-03-25T21:03:02.355Z,2.80
2023-03-25T21:05:30.159Z,3.13
2023-03-25T21:07:57.981Z,2.27
2023-03-25T21:10:27.308Z,3.00
2023-03-25T21:12:55.240Z,2.70
2023-03-25T21:15:23.331Z,3.07
2023-03-25T21:17:50.988Z,3.20
2023-03-25T21:20:22.149Z,2.70
2023-03-25T21:22:51.130Z,2.00
2023-03-25T21:25:18.984Z,1.93
2023-03-25T21:27:47.070Z,1.73
2023-03-25T21:30:16.167Z,1.53
2023-03-25T21:32:44.144Z,2.57
2023-03-25T21:35:12.110Z,1.73
2023-03-25T21:37:40.409Z,1.80
2023-03-25T21:40:12.419Z,1.70
2023-03-25T21:42:47.324Z,1.90
2023-03-25T21:45:18.709Z,1.90
2023-03-25T21:47:55.105Z,2.30
2023-03-25T21:50:22.994Z,2.93
2023-03-25T21:52:50.913Z,3.00
2023-03-25T21:55:19.702Z,3.40
2023-03-25T21:57:47.964Z,3.70
2023-03-25T22:00:19.743Z,3.30
2023-03-25T22:02:48.723Z,4.70
2023-03-25T22:05:18.131Z,4.23
2023-03-25T22:07:46.526Z,3.93
2023-03-25T22:10:14.451Z,4.40
2023-03-25T22:12:42.400Z,3.43
2023-03-25T22:15:11.652Z,3.83
2023-03-25T22:17:39.592Z,3.90
2023-03-25T22:20:09.068Z,4.30
2023-03-25T22:22:37.242Z,4.20
2023-03-25T22:25:08.361Z,4.13
2023-03-25T22:27:37.535Z,3.67
2023-03-25T22:30:11.806Z,4.07
2023-03-25T22:32:39.875Z,3.87
2023-03-25T22:35:08.994Z,3.43
2023-03-25T22:37:37.115Z,3.47
2023-03-25T22:40:08.747Z,3.00
2023-03-25T22:42:36.554Z,2.70
2023-03-25T22:45:06.177Z,2.30
2023-03-25T22:47:34.090Z,2.20
2023-03-25T22:50:02.390Z,2.20
2023-03-25T22:52:30.389Z,1.80
2023-03-25T22:54:58.894Z,1.87
2023-03-25T22:57:27.016Z,1.80
2023-03-25T22:59:55.010Z,1.93
2023-03-25T23:02:22.960Z,1.57
2023-03-25T23:04:51.092Z,1.60
2023-03-25T23:07:18.943Z,2.00
2023-03-25T23:09:47.812Z,1.90
2023-03-25T23:12:24.158Z,1.77
2023-03-25T23:14:57.409Z,1.90
2023-03-25T23:17:27.502Z,2.20
2023-03-25T23:19:56.053Z,2.23
2023-03-25T23:22:25.141Z,3.10
2023-03-25T23:24:53.427Z,2.80
2023-03-25T23:27:22.573Z,3.13
2023-03-25T23:29:50.558Z,2.73
2023-03-25T23:32:18.465Z,3.70
2023-03-25T23:34:46.611Z,4.37
2023-03-25T23:37:15.365Z,4.00
2023-03-25T23:39:46.394Z,4.70
2023-03-25T23:42:14.474Z,4.70
2023-03-25T23:44:44.002Z,5.17
2023-03-25T23:47:12.461Z,4.70
2023-03-25T23:49:40.415Z,4.63
2023-03-25T23:52:11.518Z,5.10
2023-03-25T23:54:40.916Z,5.80
2023-03-25T23:57:08.955Z,4.80
2023-03-25T23:59:36.833Z,4.90
